Wetterstation Vordersexau
Wetterdaten: Woche 16.04.12 - 22.04.12 (KW16)
Datum Zeit Temp. A. Feuchte A. Luftdruck Regen Wind Richtung Taupunkt Windchill Windben
16.04.2012 00:00 6,8 C 85 % 1008,1 hPa 0,0 l/m 0,0 km/h N-NO 4,5 C 6,8 C 0,0 km/h
16.04.2012 01:00 6,9 C 84 % 1008,7 hPa 0,4 l/m 0,0 km/h N-NO 4,4 C 6,9 C 0,0 km/h
16.04.2012 02:00 6,6 C 84 % 1009,0 hPa 0,0 l/m 0,0 km/h N 4,1 C 6,6 C 0,0 km/h
16.04.2012 03:00 6,3 C 84 % 1009,2 hPa 0,4 l/m 9,1 km/h N 3,8 C 4,1 C 5,0 km/h
16.04.2012 04:00 5,9 C 84 % 1009,4 hPa 0,4 l/m 0,6 km/h N-NO 3,4 C 5,9 C 0,4 km/h
16.04.2012 05:00 5,8 C 85 % 1009,7 hPa 0,0 l/m 0,0 km/h N-NO 3,5 C 5,8 C 0,0 km/h
16.04.2012 06:00 5,6 C 85 % 1010,4 hPa 0,0 l/m 5,2 km/h N 3,3 C 5,6 C 2,9 km/h
16.04.2012 07:00 5,3 C 85 % 1011,0 hPa 0,0 l/m 5,8 km/h N-NO 3,0 C 5,3 C 3,2 km/h
16.04.2012 08:00 5,3 C 85 % 1011,7 hPa 0,0 l/m 14,9 km/h N-NO 3,0 C -0,5 C 8,3 km/h
16.04.2012 09:00 5,6 C 85 % 1012,4 hPa 0,0 l/m 10,4 km/h N 3,3 C 2,5 C 5,8 km/h
16.04.2012 10:00 5,8 C 83 % 1013,2 hPa 0,0 l/m 21,4 km/h N 3,1 C -2,7 C 11,9 km/h
16.04.2012 11:00 5,8 C 82 % 1013,9 hPa 0,0 l/m 20,1 km/h NO 3,0 C -2,2 C 11,2 km/h
16.04.2012 12:00 6,1 C 81 % 1014,0 hPa 0,4 l/m 20,7 km/h N 3,1 C -2,0 C 11,5 km/h
16.04.2012 13:00 7,9 C 78 % 1014,4 hPa 0,0 l/m 0,0 km/h N-NO 4,3 C 7,9 C 0,0 km/h
16.04.2012 14:00 8,1 C 73 % 1014,9 hPa 0,0 l/m 0,0 km/h N-NO 3,6 C 8,1 C 0,0 km/h
16.04.2012 15:00 8,3 C 73 % 1015,0 hPa 0,0 l/m 9,7 km/h N-NO 3,8 C 5,9 C 5,4 km/h
16.04.2012 16:00 7,0 C 75 % 1015,3 hPa 0,0 l/m 3,2 km/h N-NO 2,9 C 7,0 C 1,8 km/h
16.04.2012 17:00 7,3 C 74 % 1015,8 hPa 0,0 l/m 0,0 km/h N-NO 3,0 C 7,3 C 0,0 km/h
16.04.2012 18:00 7,3 C 75 % 1015,9 hPa 0,0 l/m 0,0 km/h N-NO 3,2 C 7,3 C 0,0 km/h
16.04.2012 19:00 6,3 C 76 % 1016,4 hPa 0,0 l/m 0,0 km/h O-NO 2,4 C 6,3 C 0,0 km/h
16.04.2012 20:00 5,6 C 80 % 1016,4 hPa 0,0 l/m 0,0 km/h SO 2,4 C 5,6 C 0,0 km/h
16.04.2012 21:00 5,3 C 80 % 1017,0 hPa 0,0 l/m 2,6 km/h SO 2,1 C 5,3 C 1,4 km/h
16.04.2012 22:00 4,1 C 81 % 1017,0 hPa 0,0 l/m 0,0 km/h O-NO 1,1 C 4,1 C 0,0 km/h
16.04.2012 23:00 1,7 C 84 % 1016,7 hPa 0,0 l/m 0,0 km/h NO -0,7 C 1,7 C 0,0 km/h
17.04.2012 00:00 0,6 C 85 % 1017,0 hPa 0,0 l/m 0,0 km/h NO -1,6 C 0,6 C 0,0 km/h
17.04.2012 01:00 0,4 C 86 % 1016,7 hPa 0,0 l/m 0,0 km/h NO -1,7 C 0,4 C 0,0 km/h
17.04.2012 02:00 0,4 C 85 % 1016,2 hPa 0,0 l/m 0,0 km/h O-NO -1,8 C 0,4 C 0,0 km/h
17.04.2012 03:00 0,9 C 85 % 1015,7 hPa 0,0 l/m 0,0 km/h O-SO -1,3 C 0,9 C 0,0 km/h
17.04.2012 04:00 0,6 C 85 % 1014,9 hPa 0,0 l/m 0,0 km/h N-NO -1,6 C 0,6 C 0,0 km/h
17.04.2012 05:00 -0,6 C 85 % 1014,4 hPa 0,0 l/m 0,0 km/h N-NO -2,8 C -0,6 C 0,0 km/h
17.04.2012 06:00 -1,2 C 85 % 1013,9 hPa 0,0 l/m 0,0 km/h O-NO -3,4 C -1,2 C 0,0 km/h
17.04.2012 07:00 -1,1 C 85 % 1014,0 hPa 0,0 l/m 0,0 km/h O-NO -3,3 C -1,1 C 0,0 km/h
17.04.2012 08:00 3,9 C 82 % 1013,5 hPa 0,0 l/m 0,0 km/h N-NW 1,1 C 3,9 C 0,0 km/h
17.04.2012 09:00 11,4 C 69 % 1013,0 hPa 0,0 l/m 0,0 km/h W 5,9 C 11,4 C 0,0 km/h
17.04.2012 10:00 13,5 C 57 % 1012,3 hPa 0,0 l/m 0,0 km/h SW 5,2 C 13,5 C 0,0 km/h
17.04.2012 11:00 14,3 C 51 % 1011,9 hPa 0,0 l/m 0,0 km/h N-NO 4,3 C 14,3 C 0,0 km/h
17.04.2012 12:00 15,1 C 47 % 1010,9 hPa 0,0 l/m 1,3 km/h W 3,9 C 15,1 C 0,7 km/h
17.04.2012 13:00 15,1 C 46 % 1009,5 hPa 0,0 l/m 0,0 km/h W-SW 3,6 C 15,1 C 0,0 km/h
17.04.2012 14:00 16,0 C 44 % 1008,3 hPa 0,0 l/m 13,0 km/h W 3,8 C 13,1 C 7,2 km/h
17.04.2012 15:00 15,9 C 46 % 1007,0 hPa 0,0 l/m 2,6 km/h SW 4,3 C 15,9 C 1,4 km/h
17.04.2012 16:00 16,6 C 43 % 1005,8 hPa 0,0 l/m 25,3 km/h W-SW 4,0 C 10,7 C 14,0 km/h
17.04.2012 17:00 15,9 C 39 % 1004,9 hPa 0,0 l/m 29,2 km/h W-SW 2,0 C 9,1 C 16,2 km/h
17.04.2012 18:00 16,4 C 40 % 1004,0 hPa 0,0 l/m 19,4 km/h SW 2,8 C 11,7 C 10,8 km/h
17.04.2012 19:00 13,3 C 45 % 1003,2 hPa 0,0 l/m 3,2 km/h SW 1,6 C 13,3 C 1,8 km/h
17.04.2012 20:00 8,3 C 56 % 1002,9 hPa 0,0 l/m 0,0 km/h NO 0,0 C 8,3 C 0,0 km/h
17.04.2012 21:00 5,9 C 68 % 1003,1 hPa 0,0 l/m 0,0 km/h O-NO 0,5 C 5,9 C 0,0 km/h
17.04.2012 22:00 5,7 C 74 % 1002,6 hPa 0,0 l/m 0,0 km/h SO 1,4 C 5,7 C 0,0 km/h
17.04.2012 23:00 5,4 C 76 % 1002,2 hPa 0,0 l/m 0,0 km/h S-SO 1,5 C 5,4 C 0,0 km/h
18.04.2012 00:00 8,2 C 60 % 1002,0 hPa 0,0 l/m 7,1 km/h S-SO 0,9 C 7,7 C 4,0 km/h
18.04.2012 01:00 8,4 C 58 % 1001,9 hPa 0,0 l/m 24,0 km/h S-SW 0,6 C -0,1 C 13,3 km/h
18.04.2012 02:00 5,8 C 77 % 1001,7 hPa 0,0 l/m 34,3 km/h S 2,1 C -6,2 C 19,1 km/h
18.04.2012 03:00 5,2 C 82 % 1001,2 hPa 0,4 l/m 7,1 km/h SO 2,4 C 4,6 C 4,0 km/h
18.04.2012 04:00 5,4 C 84 % 1000,7 hPa 0,0 l/m 9,7 km/h S-SW 2,9 C 2,7 C 5,4 km/h
18.04.2012 05:00 5,7 C 83 % 1000,1 hPa 0,0 l/m 1,3 km/h SW 3,0 C 5,7 C 0,7 km/h
18.04.2012 06:00 6,1 C 83 % 999,7 hPa 0,0 l/m 6,5 km/h S-SW 3,4 C 6,0 C 3,6 km/h
18.04.2012 07:00 6,6 C 82 % 999,4 hPa 0,0 l/m 16,8 km/h W-SW 3,8 C 0,2 C 9,4 km/h
18.04.2012 08:00 6,8 C 82 % 999,0 hPa 0,0 l/m 23,3 km/h S-SW 3,9 C -2,0 C 13,0 km/h
18.04.2012 09:00 8,2 C 80 % 998,8 hPa 0,4 l/m 31,8 km/h W-SW 5,0 C -2,3 C 17,6 km/h
18.04.2012 10:00 10,8 C 78 % 998,4 hPa 0,0 l/m 25,9 km/h S-SW 7,1 C 2,7 C 14,4 km/h
18.04.2012 11:00 9,6 C 73 % 997,9 hPa 0,0 l/m 17,5 km/h W-SW 5,0 C 3,6 C 9,7 km/h
18.04.2012 12:00 13,2 C 55 % 997,1 hPa 0,0 l/m 20,1 km/h W 4,4 C 7,4 C 11,2 km/h
18.04.2012 13:00 13,4 C 57 % 996,3 hPa 0,0 l/m 20,1 km/h SW 5,1 C 7,7 C 11,2 km/h
18.04.2012 14:00 13,6 C 51 % 995,6 hPa 0,0 l/m 10,4 km/h W-SW 3,7 C 11,4 C 5,8 km/h
18.04.2012 15:00 16,8 C 43 % 994,7 hPa 0,0 l/m 5,2 km/h W-NW 4,2 C 16,8 C 2,9 km/h
18.04.2012 16:00 14,8 C 47 % 993,7 hPa 0,0 l/m 15,6 km/h SW 3,6 C 10,8 C 8,6 km/h
18.04.2012 17:00 16,9 C 42 % 992,8 hPa 0,0 l/m 15,6 km/h SW 3,9 C 13,3 C 8,6 km/h
18.04.2012 18:00 13,9 C 48 % 992,5 hPa 0,0 l/m 0,0 km/h S-SW 3,1 C 13,9 C 0,0 km/h
18.04.2012 19:00 12,9 C 53 % 992,1 hPa 0,0 l/m 0,0 km/h S 3,6 C 12,9 C 0,0 km/h
18.04.2012 20:00 9,9 C 61 % 991,8 hPa 0,0 l/m 0,0 km/h SO 2,7 C 9,9 C 0,0 km/h
18.04.2012 21:00 9,0 C 68 % 991,8 hPa 0,0 l/m 15,6 km/h SO 3,4 C 3,7 C 8,6 km/h
18.04.2012 22:00 8,9 C 69 % 991,5 hPa 0,0 l/m 23,3 km/h S-SO 3,5 C 0,8 C 13,0 km/h
18.04.2012 23:00 8,8 C 67 % 991,4 hPa 0,0 l/m 24,6 km/h S-SO 3,0 C 0,3 C 13,7 km/h
19.04.2012 00:00 8,8 C 66 % 991,4 hPa 0,0 l/m 19,4 km/h S-SO 2,8 C 1,9 C 10,8 km/h
19.04.2012 01:00 8,9 C 65 % 991,3 hPa 0,0 l/m 3,9 km/h SO 2,7 C 8,9 C 2,2 km/h
19.04.2012 02:00 8,9 C 67 % 990,9 hPa 0,0 l/m 22,0 km/h W-SW 3,1 C 1,2 C 12,2 km/h
19.04.2012 03:00 9,1 C 64 % 990,9 hPa 0,0 l/m 0,0 km/h SW 2,7 C 9,1 C 0,0 km/h
19.04.2012 04:00 8,5 C 67 % 991,0 hPa 0,0 l/m 0,0 km/h S-SO 2,7 C 8,5 C 0,0 km/h
19.04.2012 05:00 8,2 C 71 % 991,3 hPa 0,0 l/m 0,0 km/h SO 3,3 C 8,2 C 0,0 km/h
19.04.2012 06:00 7,1 C 79 % 991,3 hPa 0,0 l/m 0,0 km/h S 3,7 C 7,1 C 0,0 km/h
19.04.2012 07:00 8,1 C 77 % 991,6 hPa 0,0 l/m 1,3 km/h S 4,3 C 8,1 C 0,7 km/h
19.04.2012 08:00 9,2 C 73 % 991,8 hPa 0,0 l/m 6,5 km/h S-SW 4,6 C 9,2 C 3,6 km/h
19.04.2012 09:00 10,1 C 67 % 991,9 hPa 0,0 l/m 18,8 km/h SW 4,3 C 3,8 C 10,4 km/h
19.04.2012 10:00 13,4 C 60 % 992,2 hPa 0,0 l/m 22,0 km/h W-SW 5,8 C 7,2 C 12,2 km/h
19.04.2012 11:00 14,3 C 52 % 992,1 hPa 0,0 l/m 20,1 km/h S 4,6 C 8,8 C 11,2 km/h
19.04.2012 12:00 14,1 C 55 % 991,9 hPa 0,0 l/m 26,6 km/h S-SW 5,2 C 7,1 C 14,8 km/h
19.04.2012 13:00 16,9 C 48 % 991,5 hPa 0,0 l/m 23,3 km/h W-SW 5,8 C 11,5 C 13,0 km/h
19.04.2012 14:00 12,4 C 60 % 992,0 hPa 0,0 l/m 31,1 km/h SO 4,9 C 3,8 C 17,3 km/h
19.04.2012 15:00 8,4 C 80 % 992,6 hPa 0,0 l/m 0,0 km/h S-SW 5,2 C 8,4 C 0,0 km/h
19.04.2012 16:00 11,8 C 70 % 992,2 hPa 0,0 l/m 11,0 km/h S-SO 6,5 C 9,1 C 6,1 km/h
19.04.2012 17:00 11,3 C 72 % 992,0 hPa 0,0 l/m 5,2 km/h SO 6,4 C 11,3 C 2,9 km/h
19.04.2012 18:00 13,5 C 64 % 991,8 hPa 0,0 l/m 10,4 km/h S-SW 6,8 C 11,3 C 5,8 km/h
19.04.2012 19:00 12,1 C 60 % 992,0 hPa 0,0 l/m 0,0 km/h SO 4,6 C 12,1 C 0,0 km/h
19.04.2012 20:00 8,3 C 73 % 992,9 hPa 0,0 l/m 0,0 km/h S-SO 3,8 C 8,3 C 0,0 km/h
19.04.2012 21:00 7,3 C 83 % 994,1 hPa 0,7 l/m 24,6 km/h N-NO 4,6 C -1,7 C 13,7 km/h
19.04.2012 22:00 5,6 C 84 % 994,0 hPa 0,4 l/m 0,0 km/h NO 3,1 C 5,6 C 0,0 km/h
19.04.2012 23:00 4,4 C 85 % 994,2 hPa 0,0 l/m 0,0 km/h O 2,1 C 4,4 C 0,0 km/h
20.04.2012 00:00 4,1 C 85 % 994,5 hPa 0,0 l/m 0,0 km/h O-NO 1,8 C 4,1 C 0,0 km/h
20.04.2012 01:00 4,4 C 84 % 994,6 hPa 0,0 l/m 0,0 km/h S-SO 1,9 C 4,4 C 0,0 km/h
20.04.2012 02:00 5,4 C 83 % 994,7 hPa 0,0 l/m 2,6 km/h S 2,7 C 5,4 C 1,4 km/h
20.04.2012 03:00 6,4 C 84 % 994,7 hPa 0,0 l/m 0,0 km/h W-SW 3,9 C 6,4 C 0,0 km/h
20.04.2012 04:00 7,3 C 82 % 994,8 hPa 0,0 l/m 9,1 km/h SW 4,4 C 5,2 C 5,0 km/h
20.04.2012 05:00 6,8 C 82 % 994,9 hPa 0,0 l/m 22,7 km/h SW 3,9 C -1,8 C 12,6 km/h
20.04.2012 06:00 7,3 C 81 % 995,4 hPa 0,0 l/m 3,9 km/h S-SW 4,3 C 7,3 C 2,2 km/h
20.04.2012 07:00 7,6 C 80 % 996,1 hPa 0,0 l/m 14,3 km/h SW 4,4 C 2,6 C 7,9 km/h
20.04.2012 08:00 7,9 C 80 % 996,5 hPa 0,0 l/m 8,4 km/h SW 4,7 C 6,4 C 4,7 km/h
20.04.2012 09:00 9,5 C 78 % 997,0 hPa 0,0 l/m 27,2 km/h SW 5,9 C 0,6 C 15,1 km/h
20.04.2012 10:00 11,1 C 73 % 997,5 hPa 0,0 l/m 22,0 km/h SW 6,4 C 4,1 C 12,2 km/h
20.04.2012 11:00 12,2 C 71 % 997,6 hPa 0,0 l/m 20,7 km/h SW 7,1 C 5,9 C 11,5 km/h
20.04.2012 12:00 12,9 C 71 % 997,8 hPa 0,0 l/m 24,0 km/h W-SW 7,8 C 6,0 C 13,3 km/h
20.04.2012 13:00 14,9 C 54 % 997,6 hPa 0,0 l/m 24,0 km/h W-SW 5,7 C 8,7 C 13,3 km/h
20.04.2012 14:00 15,4 C 52 % 997,9 hPa 0,0 l/m 29,8 km/h SW 5,6 C 8,3 C 16,6 km/h
20.04.2012 15:00 14,5 C 53 % 997,9 hPa 0,0 l/m 20,7 km/h W-NW 5,0 C 8,9 C 11,5 km/h
20.04.2012 16:00 16,5 C 43 % 997,9 hPa 0,0 l/m 18,8 km/h SW 3,9 C 12,0 C 10,4 km/h
20.04.2012 17:00 16,3 C 46 % 998,5 hPa 0,0 l/m 39,5 km/h W-SW 4,7 C 8,3 C 22,0 km/h
20.04.2012 18:00 12,2 C 56 % 999,2 hPa 0,0 l/m 12,3 km/h W-SW 3,7 C 8,9 C 6,8 km/h
20.04.2012 19:00 12,8 C 53 % 999,9 hPa 0,0 l/m 36,3 km/h SW 3,5 C 3,6 C 20,2 km/h
20.04.2012 20:00 8,9 C 64 % 1000,5 hPa 0,0 l/m 7,1 km/h S 2,5 C 8,4 C 4,0 km/h
20.04.2012 21:00 7,1 C 69 % 1001,1 hPa 0,0 l/m 0,0 km/h N-NO 1,8 C 7,1 C 0,0 km/h
20.04.2012 22:00 4,9 C 77 % 1001,0 hPa 0,0 l/m 0,0 km/h O-NO 1,2 C 4,9 C 0,0 km/h
20.04.2012 23:00 3,9 C 80 % 1000,8 hPa 0,0 l/m 0,0 km/h O 0,8 C 3,9 C 0,0 km/h
21.04.2012 00:00 3,8 C 82 % 1001,1 hPa 0,0 l/m 0,0 km/h O-NO 1,0 C 3,8 C 0,0 km/h
21.04.2012 01:00 4,6 C 82 % 1001,3 hPa 0,0 l/m 0,0 km/h NO 1,8 C 4,6 C 0,0 km/h
21.04.2012 02:00 5,4 C 82 % 1001,2 hPa 0,0 l/m 0,0 km/h S-SW 2,6 C 5,4 C 0,0 km/h
21.04.2012 03:00 8,6 C 71 % 1001,1 hPa 0,0 l/m 17,5 km/h SW 3,6 C 2,4 C 9,7 km/h
21.04.2012 04:00 8,4 C 71 % 1001,1 hPa 0,0 l/m 15,6 km/h W-SW 3,5 C 2,9 C 8,6 km/h
21.04.2012 05:00 8,7 C 72 % 1000,8 hPa 0,0 l/m 18,1 km/h S 3,9 C 2,3 C 10,1 km/h
21.04.2012 06:00 7,4 C 79 % 1001,5 hPa 0,0 l/m 22,0 km/h W-SW 4,0 C -0,8 C 12,2 km/h
21.04.2012 07:00 7,4 C 81 % 1001,9 hPa 0,0 l/m 31,1 km/h W-SW 4,4 C -3,3 C 17,3 km/h
21.04.2012 08:00 8,6 C 77 % 1002,3 hPa 0,0 l/m 36,3 km/h W-SW 4,8 C -2,6 C 20,2 km/h
21.04.2012 09:00 12,4 C 65 % 1002,3 hPa 0,0 l/m 35,0 km/h S-SW 6,0 C 3,2 C 19,4 km/h
21.04.2012 10:00 12,3 C 68 % 1002,5 hPa 0,0 l/m 49,9 km/h W-SW 6,6 C 1,2 C 27,7 km/h
21.04.2012 11:00 11,8 C 67 % 1002,3 hPa 0,0 l/m 20,1 km/h W 5,9 C 5,6 C 11,2 km/h
21.04.2012 12:00 12,9 C 61 % 1001,5 hPa 0,0 l/m 20,1 km/h W-SW 5,6 C 7,0 C 11,2 km/h
21.04.2012 13:00 12,3 C 74 % 1002,1 hPa 1,1 l/m 0,0 km/h S-SW 7,8 C 12,3 C 0,0 km/h
21.04.2012 14:00 15,2 C 63 % 1001,1 hPa 0,0 l/m 12,3 km/h W 8,2 C 12,4 C 6,8 km/h
21.04.2012 15:00 11,3 C 71 % 1000,9 hPa 0,0 l/m 1,9 km/h SO 6,2 C 11,3 C 1,1 km/h
21.04.2012 16:00 14,8 C 63 % 999,9 hPa 0,4 l/m 0,0 km/h SW 7,8 C 14,8 C 0,0 km/h
21.04.2012 17:00 15,1 C 61 % 999,4 hPa 0,4 l/m 9,1 km/h W 7,6 C 13,6 C 5,0 km/h
21.04.2012 18:00 10,4 C 79 % 1000,8 hPa 1,1 l/m 8,4 km/h W 6,9 C 9,0 C 4,7 km/h
21.04.2012 19:00 7,8 C 84 % 1002,1 hPa 2,1 l/m 3,2 km/h S-SO 5,3 C 7,8 C 1,8 km/h
21.04.2012 20:00 6,8 C 85 % 1002,7 hPa 2,8 l/m 8,4 km/h S-SW 4,5 C 5,2 C 4,7 km/h
21.04.2012 21:00 7,4 C 84 % 1004,4 hPa 0,0 l/m 1,3 km/h W-NW 4,9 C 7,4 C 0,7 km/h
21.04.2012 22:00 7,6 C 83 % 1004,4 hPa 0,0 l/m 9,7 km/h S-SW 4,9 C 5,1 C 5,4 km/h
21.04.2012 23:00 6,9 C 82 % 1005,0 hPa 0,0 l/m 12,3 km/h W-SW 4,0 C 2,8 C 6,8 km/h
22.04.2012 00:00 6,2 C 83 % 1005,9 hPa 0,0 l/m 16,8 km/h SW 3,5 C -0,3 C 9,4 km/h
22.04.2012 01:00 7,6 C 83 % 1006,0 hPa 0,0 l/m 25,3 km/h SW 4,9 C -1,5 C 14,0 km/h
22.04.2012 02:00 7,8 C 80 % 1006,3 hPa 0,0 l/m 38,2 km/h SW 4,6 C -4,1 C 21,2 km/h
22.04.2012 03:00 7,4 C 82 % 1006,5 hPa 0,0 l/m 22,0 km/h SW 4,5 C -0,8 C 12,2 km/h
22.04.2012 04:00 6,4 C 84 % 1006,8 hPa 0,0 l/m 16,2 km/h S-SW 3,9 C 0,2 C 9,0 km/h
22.04.2012 05:00 6,1 C 85 % 1006,6 hPa 0,4 l/m 13,6 km/h W-SW 3,8 C 1,1 C 7,6 km/h
22.04.2012 06:00 6,4 C 85 % 1006,8 hPa 0,4 l/m 22,0 km/h SW 4,1 C -2,1 C 12,2 km/h
22.04.2012 07:00 7,2 C 84 % 1006,8 hPa 0,0 l/m 15,6 km/h SW 4,7 C 1,5 C 8,6 km/h
22.04.2012 08:00 7,9 C 83 % 1007,6 hPa 0,0 l/m 24,6 km/h SW 5,2 C -0,9 C 13,7 km/h
22.04.2012 09:00 8,2 C 82 % 1008,3 hPa 0,0 l/m 21,4 km/h SW 5,3 C 0,5 C 11,9 km/h
22.04.2012 10:00 7,8 C 81 % 1008,9 hPa 0,0 l/m 19,4 km/h S 4,7 C 0,7 C 10,8 km/h
22.04.2012 11:00 8,7 C 77 % 1009,3 hPa 0,0 l/m 21,4 km/h W 4,9 C 1,1 C 11,9 km/h
22.04.2012 12:00 9,9 C 76 % 1009,0 hPa 0,0 l/m 24,0 km/h W-SW 5,9 C 2,0 C 13,3 km/h
22.04.2012 13:00 13,2 C 64 % 1008,6 hPa 0,0 l/m 30,5 km/h SW 6,5 C 5,1 C 16,9 km/h
22.04.2012 14:00 13,6 C 65 % 1008,6 hPa 0,0 l/m 60,3 km/h W-SW 7,1 C 2,5 C 33,5 km/h
22.04.2012 15:00 12,3 C 68 % 1008,5 hPa 0,0 l/m 35,6 km/h SW 6,6 C 2,9 C 19,8 km/h
22.04.2012 16:00 13,6 C 59 % 1008,4 hPa 0,0 l/m 25,9 km/h S 5,7 C 6,5 C 14,4 km/h
22.04.2012 17:00 10,9 C 68 % 1008,7 hPa 0,0 l/m 15,6 km/h S-SW 5,2 C 6,0 C 8,6 km/h
22.04.2012 18:00 13,3 C 56 % 1008,1 hPa 0,0 l/m 25,3 km/h W-SW 4,7 C 6,2 C 14,0 km/h
22.04.2012 19:00 11,8 C 61 % 1008,1 hPa 0,0 l/m 18,1 km/h SW 4,5 C 6,2 C 10,1 km/h
22.04.2012 20:00 8,1 C 71 % 1008,3 hPa 0,0 l/m 0,0 km/h SO 3,2 C 8,1 C 0,0 km/h
22.04.2012 21:00 6,4 C 76 % 1008,6 hPa 0,0 l/m 1,9 km/h O-NO 2,5 C 6,4 C 1,1 km/h
22.04.2012 22:00 4,9 C 80 % 1008,8 hPa 0,0 l/m 0,0 km/h N-NO 1,7 C 4,9 C 0,0 km/h
22.04.2012 23:00 4,9 C 82 % 1008,5 hPa 0,0 l/m 0,0 km/h NO 2,1 C 4,9 C 0,0 km/h
Min-Datum _ 17.04.12 17.04.12 19.04.12 - 16.04.12 - 17.04.12 18.04.12 16.04.12
_ Min-Zeit 06:30 17:30 02:30 - 00:30 - 06:30 02:30 00:30
Minimum _ -1,2 C 39 % 990,9 hPa - 0,0 km/h - -3,4 C -6,2 C 0,0 km/h
Max-Datum _ 18.04.12 17.04.12 16.04.12 21.04.12 22.04.12 - 21.04.12 18.04.12 22.04.12
_ Max-Zeit 17:30 01:30 21:30 20:30 14:30 - 14:30 15:30 14:30
Maximum _ 16,9 C 86 % 1017,0 hPa 2,8 l/m 60,3 km/h
W-SW
- 8,2 C 16,8 C 33,5 km/h
W-SW
Durchschnitt _ 8,9 C 72 % 1002,7 hPa #11,7 l/m 11,8 km/h SW 3,7 C 5,5 C 6,6 km/h
www.sexauwetter.de